Have a Safe July 4th! 

Flight Track Log - Related Links

Times and Time Zones

All times are in EDT time to prevent confusion due to time zone crossing. See the N775NC flight status page for this flight to view local times or setup timezone preferences in your user account.

Time Position Orientation Groundspeed Altitude Reporting Facility
EDT Latitude Longitude Course Direction KTS MPH feet Rate Location/Type
Sat 03:39:07 PM 42.0167 -87.9333 360° North 178 205 2,500  Level Chicago TRACON
Sat 03:40:07 PM 42.0833 -87.9333 349° North 219 252 4,700 2,268 Climbing Chicago TRACON
Sat 03:41:14 PM 42.1544 -87.9522 32° Northeast 233 268 7,300 2,409 Climbing Chicago Center
Sat 03:42:14 PM 42.2183 -87.8975 37° Northeast 245 282 9,800 1,800 Climbing Chicago Center
Sat 03:43:14 PM 42.2861 -87.8286 42° Northeast 276 318 10,900 1,750 Climbing Chicago Center
Sat 03:44:14 PM 42.3600 -87.7369 14° North 333 383 13,300 2,300 Climbing Chicago Center
Sat 03:45:14 PM 42.4575 -87.7036 North 351 404 15,500 2,250 Climbing Chicago Center
Sat 03:46:14 PM 42.5553 -87.6869 22° Northeast 356 410 17,800 1,900 Climbing Chicago Center
Sat 03:47:14 PM 42.6461 -87.6364 49° Northeast 362 417 19,300 1,600 Climbing Chicago Center
Sat 03:48:14 PM 42.7153 -87.5272 74° East 442 509 21,000 1,600 Climbing Chicago Center
Sat 03:49:14 PM 42.7522 -87.3564 76° East 444 511 22,500 1,000 Climbing Chicago Center
Sat 03:50:14 PM 42.7786 -87.2086 74° East 439 505 23,000 250 Climbing Chicago Center
Sat 03:51:14 PM 42.8150 -87.0347 69° East 451 519 23,000  Level Chicago Center
Sat 03:52:14 PM 42.8636 -86.8656 65° Northeast 460 529 23,000  Level Chicago Center
Sat 03:53:14 PM 42.9183 -86.7019 64° Northeast 470 541 23,000  Level Chicago Center
Sat 03:54:14 PM 42.9769 -86.5403 62° Northeast 470 541 23,000  Level Chicago Center
Sat 03:55:14 PM 43.0356 -86.3872 63° Northeast 470 541 23,000  Level Chicago Center
Sat 03:56:14 PM 43.1000 -86.2164 60° Northeast 459 528 23,000  Level Chicago Center
Sat 03:57:14 PM 43.1586 -86.0767 71° East 438 504 23,000  Level Chicago Center
Sat 03:58:14 PM 43.1903 -85.9525 82° East 425 489 23,000  Level Chicago Center
Sat 03:59:14 PM 43.2078 -85.7722 83° East 417 480 23,000  Level Chicago Center
Sat 04:01:41 PM 43.2428 -85.3661 96° East 452 520 23,000  Level Cleveland Center
Sat 04:02:41 PM 43.2306 -85.2056 111° Southeast 437 503 23,000  Level Cleveland Center
Sat 04:03:41 PM 43.1867 -85.0514 111° Southeast 420 483 23,000  Level Cleveland Center
Sat 04:04:41 PM 43.1444 -84.9003 106° East 425 489 23,000  Level Cleveland Center
Sat 04:05:41 PM 43.1069 -84.7269 105° East 430 495 23,000  Level Cleveland Center
Sat 04:06:41 PM 43.0750 -84.5683 98° East 430 495 23,000 -600 Level Cleveland Center
Sat 04:07:41 PM 43.0575 -84.4081 93° East 430 495 21,800 -1,350 Descending Cleveland Center
Sat 04:08:41 PM 43.0503 -84.2483 107° East 424 488 20,300 -2,000 Descending Cleveland Center
Sat 04:09:41 PM 43.0172 -84.1017 106° East 418 481 17,800 -2,804 Descending Cleveland Center
Sat 04:10:13 PM 43.0008 -84.0211 112° Southeast 398 458 16,000 -2,743 Descending Cleveland Center
Sat 04:11:26 PM 42.9553 -83.8683 146° Southeast 368 423 13,000 -1,922 Descending Cleveland Center
Sat 04:12:21 PM 42.8781 -83.7961 152° Southeast 365 420 11,900 -492 Descending Cleveland Center
Sat 04:13:28 PM 42.7758 -83.7231 153° Southeast 367 422 12,000 47 Climbing Cleveland Center
Sat 04:14:29 PM 42.6878 -83.6622 152° Southeast 362 417 12,000  Level Cleveland Center
Sat 04:15:18 PM 42.6164 -83.6108 154° Southeast 357 411 12,000  Level Cleveland Center
Sat 04:16:18 PM 42.5242 -83.5500 153° Southeast 352 405 12,000  Level Cleveland Center
Sat 04:17:25 PM 42.4300 -83.4836 138° Southeast 352 405 12,000 -47 Level Cleveland Center
Sat 04:18:26 PM 42.3592 -83.3961 122° Southeast 347 399 11,900 -94 Descending Cleveland Center
Sat 04:19:33 PM 42.3094 -83.2900 133° Southeast 273 314 11,800 -443 Descending Cleveland Center
Sat 04:20:28 PM 42.2672 -83.2292 180° South 262 302 11,000 -672 Descending Cleveland Center
Sat 04:21:29 PM 42.1983 -83.2292 199° South 250 288 10,500 -1,030 Descending Cleveland Center
Sat 04:22:42 PM 42.1161 -83.2678 203° Southwest 247 284 8,700 -1,426 Descending Cleveland Center
Sat 04:23:31 PM 42.0656 -83.2964 211° Southwest 245 282 7,600 -1,364 Descending Cleveland Center
Sat 04:24:32 PM 42.0103 -83.3414 282° West 237 273 6,200 -1,377 Descending Cleveland Center
Sat 04:25:33 PM 42.0228 -83.4231 282° West 214 246 4,800 -1,377 Descending Cleveland Center

Login

Don't have an account? Register now (free) for customized features, flight alerts, and more!